createdAt,value
2019-06-25T00:00:20.883Z,1287.30
2019-06-25T00:00:56.151Z,1283.50
2019-06-25T00:01:31.621Z,1291.50
2019-06-25T00:02:07.084Z,1300.60
2019-06-25T00:02:42.545Z,1284.10
2019-06-25T00:03:17.936Z,1285.20
2019-06-25T00:03:53.195Z,1290.00
2019-06-25T00:04:28.437Z,1285.10
2019-06-25T00:05:03.516Z,1285.50
2019-06-25T00:05:39.048Z,1294.00
2019-06-25T00:06:14.411Z,1281.70
2019-06-25T00:06:49.685Z,1283.30
2019-06-25T00:07:25.437Z,1286.40
2019-06-25T00:08:00.895Z,1299.60
2019-06-25T00:08:36.337Z,1305.00
2019-06-25T00:09:11.900Z,1280.70
2019-06-25T00:09:47.423Z,1289.40
2019-06-25T00:10:23.015Z,1305.50
2019-06-25T00:10:58.270Z,1308.90
2019-06-25T00:11:33.691Z,1305.10
2019-06-25T00:12:08.957Z,1307.60
2019-06-25T00:12:44.180Z,1296.10
2019-06-25T00:13:19.643Z,1277.80
2019-06-25T00:13:54.981Z,1299.20
2019-06-25T00:14:30.364Z,1301.50
2019-06-25T00:15:05.723Z,1284.10
2019-06-25T00:15:41.363Z,1283.60
2019-06-25T00:16:16.735Z,1286.70
2019-06-25T00:16:53.257Z,1284.10
2019-06-25T00:17:27.370Z,1279.10
2019-06-25T00:18:02.822Z,1279.00
2019-06-25T00:18:38.286Z,1282.90
2019-06-25T00:19:13.425Z,1286.00
2019-06-25T00:19:48.680Z,1283.30
2019-06-25T00:20:24.246Z,1281.10
2019-06-25T00:20:59.474Z,1278.00
2019-06-25T00:21:34.879Z,1273.80
2019-06-25T00:22:10.413Z,1290.80
2019-06-25T00:22:45.777Z,1295.50
2019-06-25T00:23:21.229Z,1278.00
2019-06-25T00:23:56.478Z,1292.90
2019-06-25T00:24:31.910Z,1304.80
2019-06-25T00:25:07.172Z,1299.60
2019-06-25T00:25:42.858Z,1294.30
2019-06-25T00:26:18.181Z,1293.90
2019-06-25T00:26:53.490Z,1275.00
2019-06-25T00:27:28.722Z,1279.90
2019-06-25T00:28:03.996Z,1290.30
2019-06-25T00:28:39.332Z,1278.50
2019-06-25T00:29:14.745Z,1293.10
2019-06-25T00:29:56.219Z,1289.10
2019-06-25T00:30:26.013Z,1278.70
2019-06-25T00:31:01.484Z,1297.90
2019-06-25T00:31:36.948Z,1306.20
2019-06-25T00:32:12.424Z,1309.80
2019-06-25T00:32:47.546Z,1308.80
2019-06-25T00:33:22.804Z,1289.00
2019-06-25T00:33:58.268Z,1279.90
2019-06-25T00:34:33.625Z,1282.00
2019-06-25T00:35:09.137Z,1275.50
2019-06-25T00:35:44.502Z,1286.40
2019-06-25T00:36:19.950Z,1298.90
2019-06-25T00:36:55.540Z,1285.80
2019-06-25T00:37:30.767Z,1290.20
2019-06-25T00:38:06.134Z,1292.60
2019-06-25T00:38:41.608Z,1294.30
2019-06-25T00:39:16.849Z,1280.70
2019-06-25T00:39:52.217Z,1279.50
2019-06-25T00:40:27.542Z,1287.30
2019-06-25T00:41:02.809Z,1284.90
2019-06-25T00:41:37.875Z,1292.60
2019-06-25T00:42:13.246Z,1280.70
2019-06-25T00:42:48.676Z,1278.30
2019-06-25T00:43:24.050Z,1278.60
2019-06-25T00:43:59.276Z,1280.30
2019-06-25T00:44:34.745Z,1290.40
2019-06-25T00:45:10.284Z,1272.60
2019-06-25T00:45:45.640Z,1287.80
2019-06-25T00:46:21.083Z,1283.80
2019-06-25T00:46:56.589Z,1269.80
2019-06-25T00:47:31.969Z,1275.00
2019-06-25T00:48:07.310Z,1272.30
2019-06-25T00:48:42.770Z,1271.90
2019-06-25T00:49:18.118Z,1274.00
2019-06-25T00:49:53.291Z,1271.90
2019-06-25T00:50:28.731Z,1270.60
2019-06-25T00:51:03.904Z,1275.00
2019-06-25T00:51:39.396Z,1281.10
2019-06-25T00:52:14.863Z,1278.30
2019-06-25T00:52:50.204Z,1277.80
2019-06-25T00:53:25.477Z,1275.80
2019-06-25T00:54:00.757Z,1271.90
2019-06-25T00:54:36.068Z,1265.40
2019-06-25T00:55:11.437Z,1288.30
2019-06-25T00:55:46.980Z,1285.90
2019-06-25T00:56:22.445Z,1268.70
2019-06-25T00:56:57.811Z,1273.90
2019-06-25T00:57:33.176Z,1268.40
2019-06-25T00:58:08.627Z,1270.50
2019-06-25T00:58:43.895Z,1270.10
2019-06-25T00:59:19.244Z,1269.10
2019-06-25T00:59:54.711Z,1275.30
2019-06-25T01:00:29.990Z,1283.10
2019-06-25T01:01:05.729Z,1282.90
2019-06-25T01:01:41.340Z,1290.70
2019-06-25T01:02:16.868Z,1273.40
2019-06-25T01:02:52.356Z,1277.10
2019-06-25T01:03:27.797Z,1277.80
2019-06-25T01:04:03.530Z,1278.70
2019-06-25T01:04:38.318Z,1295.20
2019-06-25T01:05:13.879Z,1299.40
2019-06-25T01:05:49.159Z,1281.80
2019-06-25T01:06:24.505Z,1287.70
2019-06-25T01:06:59.733Z,1287.90
2019-06-25T01:07:35.167Z,1270.60
2019-06-25T01:08:10.841Z,1265.40
2019-06-25T01:08:46.478Z,1268.40
2019-06-25T01:09:21.867Z,1284.90
2019-06-25T01:09:57.247Z,1274.60
2019-06-25T01:10:32.693Z,1265.30
2019-06-25T01:11:08.074Z,1267.20
2019-06-25T01:11:43.404Z,1263.40
2019-06-25T01:12:19.020Z,1264.80
2019-06-25T01:12:54.369Z,1271.30
2019-06-25T01:13:29.843Z,1280.30
2019-06-25T01:14:05.113Z,1267.20
2019-06-25T01:14:40.376Z,1263.00
2019-06-25T01:15:15.845Z,1279.90
2019-06-25T01:15:51.278Z,1293.50
2019-06-25T01:16:26.675Z,1279.30
2019-06-25T01:17:02.159Z,1279.70
2019-06-25T01:17:37.459Z,1263.00
2019-06-25T01:18:13.012Z,1265.20
2019-06-25T01:18:48.792Z,1268.70
2019-06-25T01:19:24.490Z,1281.60
2019-06-25T01:19:59.853Z,1268.50
2019-06-25T01:20:35.252Z,1272.60
2019-06-25T01:21:10.587Z,1293.60
2019-06-25T01:21:46.165Z,1289.30
2019-06-25T01:22:21.297Z,1285.70
2019-06-25T01:22:56.712Z,1269.50
2019-06-25T01:23:32.038Z,1263.10
2019-06-25T01:24:07.417Z,1261.20
2019-06-25T01:24:42.989Z,1258.40
2019-06-25T01:25:18.245Z,1270.70
2019-06-25T01:25:53.686Z,1269.00
2019-06-25T01:26:29.185Z,1264.60
2019-06-25T01:27:04.777Z,1254.40
2019-06-25T01:27:40.016Z,1275.00
2019-06-25T01:28:15.328Z,1277.60
2019-06-25T01:28:50.776Z,1264.80
2019-06-25T01:29:25.938Z,1275.30
2019-06-25T01:30:01.389Z,1273.50
2019-06-25T01:30:36.952Z,1280.60
2019-06-25T01:31:12.280Z,1266.90
2019-06-25T01:31:47.805Z,1262.90
2019-06-25T01:32:23.006Z,1266.00
2019-06-25T01:32:58.380Z,1265.00
2019-06-25T01:33:33.893Z,1259.30
2019-06-25T01:34:09.497Z,1274.00
2019-06-25T01:34:44.907Z,1276.00
2019-06-25T01:35:20.162Z,1262.90
2019-06-25T01:35:55.652Z,1263.60
2019-06-25T01:36:30.920Z,1263.30
2019-06-25T01:37:06.577Z,1268.80
2019-06-25T01:37:41.937Z,1284.40
2019-06-25T01:38:17.178Z,1273.10
2019-06-25T01:38:52.991Z,1268.00
2019-06-25T01:39:28.533Z,1265.50
2019-06-25T01:40:03.813Z,1261.40
2019-06-25T01:40:39.193Z,1258.40
2019-06-25T01:41:14.363Z,1257.90
2019-06-25T01:41:49.839Z,1257.20
2019-06-25T01:42:24.973Z,1262.30
2019-06-25T01:43:00.582Z,1255.20
2019-06-25T01:43:35.989Z,1266.20
2019-06-25T01:44:11.435Z,1275.30
2019-06-25T01:44:46.893Z,1260.70
2019-06-25T01:45:22.232Z,1263.00
2019-06-25T01:45:57.914Z,1265.10
2019-06-25T01:46:33.155Z,1257.90
2019-06-25T01:47:08.548Z,1250.30
2019-06-25T01:47:43.795Z,1262.50
2019-06-25T01:48:19.293Z,1279.70
2019-06-25T01:48:54.541Z,1266.10
2019-06-25T01:49:30.061Z,1256.10
2019-06-25T01:50:05.203Z,1256.10
2019-06-25T01:50:40.400Z,1254.00
2019-06-25T01:51:15.770Z,1254.80
2019-06-25T01:51:50.926Z,1264.90
2019-06-25T01:52:26.703Z,1275.50
2019-06-25T01:53:02.270Z,1257.30
2019-06-25T01:53:37.636Z,1270.50
2019-06-25T01:54:12.990Z,1269.20
2019-06-25T01:54:48.313Z,1263.00
2019-06-25T01:55:23.684Z,1269.90
2019-06-25T01:55:59.134Z,1271.60
2019-06-25T01:56:34.624Z,1255.70
2019-06-25T01:57:09.872Z,1257.30
2019-06-25T01:57:45.677Z,1261.40
2019-06-25T01:58:21.019Z,1276.40
2019-06-25T01:58:56.393Z,1268.20
2019-06-25T01:59:31.837Z,1263.40
2019-06-25T02:00:07.463Z,1268.30
2019-06-25T02:00:45.210Z,1250.90
2019-06-25T02:01:17.955Z,1253.60
2019-06-25T02:01:53.638Z,1258.40
2019-06-25T02:02:29.075Z,1267.40
2019-06-25T02:03:04.463Z,1259.10
2019-06-25T02:03:40.197Z,1263.20
2019-06-25T02:04:15.506Z,1261.40
2019-06-25T02:04:50.849Z,1258.80
2019-06-25T02:05:26.166Z,1257.40
2019-06-25T02:06:01.501Z,1272.30
2019-06-25T02:06:36.878Z,1274.90
2019-06-25T02:07:12.413Z,1254.20
2019-06-25T02:07:48.087Z,1252.30
2019-06-25T02:08:23.526Z,1254.10
2019-06-25T02:08:58.996Z,1257.10
2019-06-25T02:09:34.357Z,1260.60
2019-06-25T02:10:09.909Z,1255.10
2019-06-25T02:10:45.376Z,1257.30
2019-06-25T02:11:20.793Z,1270.50
2019-06-25T02:11:56.174Z,1258.80
2019-06-25T02:12:31.396Z,1253.70
2019-06-25T02:13:07.073Z,1254.10
2019-06-25T02:13:42.407Z,1251.40
2019-06-25T02:14:17.931Z,1252.80
2019-06-25T02:14:53.316Z,1270.70
2019-06-25T02:15:28.497Z,1273.90
2019-06-25T02:16:03.783Z,1252.50
2019-06-25T02:16:39.472Z,1264.60
2019-06-25T02:17:14.610Z,1265.60
2019-06-25T02:17:50.086Z,1272.30
2019-06-25T02:18:28.592Z,1272.80
2019-06-25T02:19:00.938Z,1272.10
2019-06-25T02:19:36.110Z,1270.90
2019-06-25T02:20:11.545Z,1268.80
2019-06-25T02:20:47.123Z,1278.40
2019-06-25T02:21:22.308Z,1261.80
2019-06-25T02:21:57.885Z,1250.10
2019-06-25T02:22:33.410Z,1263.30
2019-06-25T02:23:08.701Z,1266.40
2019-06-25T02:23:44.103Z,1254.70
2019-06-25T02:24:19.423Z,1255.10
2019-06-25T02:24:54.901Z,1275.30
2019-06-25T02:25:30.453Z,1271.00
2019-06-25T02:26:05.933Z,1268.40
2019-06-25T02:26:41.362Z,1263.30
2019-06-25T02:27:16.819Z,1265.50
2019-06-25T02:27:52.102Z,1265.20
2019-06-25T02:28:27.328Z,1251.80
2019-06-25T02:29:02.700Z,1259.00
2019-06-25T02:29:38.384Z,1283.80
2019-06-25T02:30:13.841Z,1266.50
2019-06-25T02:31:05.539Z,1270.40
2019-06-25T02:31:24.465Z,1284.70
2019-06-25T02:32:00.082Z,1287.00
2019-06-25T02:32:35.459Z,1268.80
2019-06-25T02:33:10.793Z,1267.40
2019-06-25T02:33:46.164Z,1277.20
2019-06-25T02:34:21.616Z,1271.50
2019-06-25T02:34:57.098Z,1267.60
2019-06-25T02:35:32.669Z,1270.90
2019-06-25T02:36:07.812Z,1252.80
2019-06-25T02:36:43.084Z,1266.70
2019-06-25T02:37:18.161Z,1277.00
2019-06-25T02:37:53.622Z,1276.30
2019-06-25T02:38:29.091Z,1276.70
2019-06-25T02:39:04.833Z,1276.40
2019-06-25T02:39:40.205Z,1275.80
2019-06-25T02:40:15.655Z,1260.00
2019-06-25T02:40:51.145Z,1250.50
2019-06-25T02:41:26.592Z,1242.50
2019-06-25T02:42:01.974Z,1254.70
2019-06-25T02:42:37.281Z,1279.10
2019-06-25T02:43:12.631Z,1279.80
2019-06-25T02:43:48.195Z,1261.10
2019-06-25T02:44:23.534Z,1248.60
2019-06-25T02:44:59.113Z,1246.30
2019-06-25T02:45:34.651Z,1259.30
2019-06-25T02:46:10.028Z,1272.50
2019-06-25T02:46:45.363Z,1276.60
2019-06-25T02:47:21.054Z,1268.20
2019-06-25T02:47:56.838Z,1248.10
2019-06-25T02:48:32.106Z,1262.90
2019-06-25T02:49:07.489Z,1267.20
2019-06-25T02:49:42.921Z,1260.90
2019-06-25T02:50:18.311Z,1255.20
2019-06-25T02:50:53.985Z,1270.50
2019-06-25T02:51:29.467Z,1264.10
2019-06-25T02:52:05.107Z,1243.10
2019-06-25T02:52:40.573Z,1260.30
2019-06-25T02:53:16.049Z,1256.20
2019-06-25T02:53:51.117Z,1264.10
2019-06-25T02:54:26.368Z,1261.40
2019-06-25T02:55:01.757Z,1256.20
2019-06-25T02:55:37.230Z,1271.90
2019-06-25T02:56:12.561Z,1277.20
2019-06-25T02:56:47.876Z,1264.80
2019-06-25T02:57:23.197Z,1251.60
2019-06-25T02:57:58.767Z,1265.20
2019-06-25T02:58:34.257Z,1274.10
2019-06-25T02:59:09.855Z,1276.90
2019-06-25T02:59:45.226Z,1268.80
2019-06-25T03:00:20.480Z,1247.60
2019-06-25T03:00:55.556Z,1261.20
2019-06-25T03:01:30.617Z,1273.20
2019-06-25T03:02:05.879Z,1277.90
2019-06-25T03:02:41.471Z,1266.80
2019-06-25T03:03:16.960Z,1263.30
2019-06-25T03:03:52.334Z,1249.50
2019-06-25T03:04:27.766Z,1241.90
2019-06-25T03:05:03.353Z,1257.20
2019-06-25T03:05:38.633Z,1257.40
2019-06-25T03:06:13.870Z,1255.50
2019-06-25T03:06:49.509Z,1263.50
2019-06-25T03:07:24.902Z,1260.80
2019-06-25T03:08:00.099Z,1274.20
2019-06-25T03:08:35.332Z,1253.00
2019-06-25T03:09:10.552Z,1253.50
2019-06-25T03:09:45.677Z,1267.40
2019-06-25T03:10:20.957Z,1267.60
2019-06-25T03:10:56.612Z,1270.10
2019-06-25T03:11:32.078Z,1271.90
2019-06-25T03:12:07.519Z,1250.70
2019-06-25T03:12:42.802Z,1246.80
2019-06-25T03:13:17.937Z,1253.00
2019-06-25T03:13:53.799Z,1247.70
2019-06-25T03:14:29.204Z,1242.20
2019-06-25T03:15:04.666Z,1246.70
2019-06-25T03:15:40.122Z,1264.50
2019-06-25T03:16:15.576Z,1267.70
2019-06-25T03:16:51.123Z,1261.30
2019-06-25T03:17:26.267Z,1244.90
2019-06-25T03:18:01.840Z,1238.70
2019-06-25T03:18:37.216Z,1256.60
2019-06-25T03:19:12.547Z,1249.50
2019-06-25T03:19:47.743Z,1252.60
2019-06-25T03:20:23.219Z,1242.20
2019-06-25T03:20:58.688Z,1250.60
2019-06-25T03:21:33.958Z,1249.70
2019-06-25T03:22:09.397Z,1251.90
2019-06-25T03:22:44.885Z,1266.30
2019-06-25T03:23:20.122Z,1256.20
2019-06-25T03:23:55.304Z,1251.90
2019-06-25T03:24:30.977Z,1256.60
2019-06-25T03:25:06.251Z,1239.70
2019-06-25T03:25:41.484Z,1251.30
2019-06-25T03:26:16.868Z,1257.40
2019-06-25T03:26:52.005Z,1253.40
2019-06-25T03:27:27.701Z,1256.20
2019-06-25T03:28:03.069Z,1237.70
2019-06-25T03:28:38.305Z,1254.20
2019-06-25T03:29:14.011Z,1261.90
2019-06-25T03:29:49.289Z,1267.10
2019-06-25T03:30:24.765Z,1268.20
2019-06-25T03:31:00.415Z,1270.70
2019-06-25T03:32:02.953Z,1268.00
2019-06-25T03:32:11.848Z,1249.60
2019-06-25T03:32:46.401Z,1244.40
2019-06-25T03:33:21.960Z,1263.80
2019-06-25T03:33:57.429Z,1262.70
2019-06-25T03:34:33.209Z,1240.10
2019-06-25T03:35:08.687Z,1256.60
2019-06-25T03:35:43.956Z,1266.00
2019-06-25T03:36:18.982Z,1260.50
2019-06-25T03:36:54.755Z,1254.90
2019-06-25T03:37:30.080Z,1256.60
2019-06-25T03:38:05.765Z,1255.20
2019-06-25T03:38:41.257Z,1262.40
2019-06-25T03:39:16.551Z,1264.50
2019-06-25T03:39:51.743Z,1272.90
2019-06-25T03:40:27.026Z,1255.00
2019-06-25T03:41:02.366Z,1251.90
2019-06-25T03:41:37.601Z,1263.20
2019-06-25T03:42:13.291Z,1262.00
2019-06-25T03:42:48.673Z,1243.80
2019-06-25T03:43:24.114Z,1246.40
2019-06-25T03:43:59.415Z,1264.40
2019-06-25T03:44:34.872Z,1266.10
2019-06-25T03:45:10.348Z,1248.60
2019-06-25T03:45:46.128Z,1242.50
2019-06-25T03:46:21.592Z,1246.10
2019-06-25T03:46:57.060Z,1247.80
2019-06-25T03:47:32.418Z,1244.00
2019-06-25T03:48:07.789Z,1243.80
2019-06-25T03:48:43.428Z,1245.20
2019-06-25T03:49:18.648Z,1264.10
2019-06-25T03:49:54.288Z,1259.30
2019-06-25T03:50:29.779Z,1245.60
2019-06-25T03:51:05.396Z,1242.10
2019-06-25T03:51:40.586Z,1259.60
2019-06-25T03:52:15.986Z,1271.80
2019-06-25T03:52:51.422Z,1270.30
2019-06-25T03:53:26.412Z,1270.70
2019-06-25T03:54:02.257Z,1257.40
2019-06-25T03:54:37.552Z,1259.90
2019-06-25T03:55:12.991Z,1253.30
2019-06-25T03:55:48.576Z,1245.30
2019-06-25T03:56:23.923Z,1241.60
2019-06-25T03:56:59.310Z,1242.20
2019-06-25T03:57:34.894Z,1246.60
2019-06-25T03:58:10.427Z,1252.00
2019-06-25T03:58:45.797Z,1262.70
2019-06-25T03:59:21.263Z,1242.90
2019-06-25T03:59:56.640Z,1250.10
2019-06-25T04:00:31.878Z,1270.10
2019-06-25T04:01:07.361Z,1278.40
2019-06-25T04:01:42.594Z,1273.60
2019-06-25T04:02:18.161Z,1260.30
2019-06-25T04:02:53.729Z,1275.20
2019-06-25T04:03:29.259Z,1257.60
2019-06-25T04:04:04.735Z,1264.90
2019-06-25T04:04:40.318Z,1260.60
2019-06-25T04:05:15.772Z,1261.10
2019-06-25T04:05:51.028Z,1246.80
2019-06-25T04:06:26.422Z,1254.30
2019-06-25T04:07:01.708Z,1270.40
2019-06-25T04:07:36.836Z,1259.70
2019-06-25T04:08:12.321Z,1269.80
2019-06-25T04:08:47.666Z,1267.00
2019-06-25T04:09:23.345Z,1263.00
2019-06-25T04:09:58.850Z,1263.10
2019-06-25T04:10:34.046Z,1264.30
2019-06-25T04:11:09.644Z,1261.70
2019-06-25T04:11:45.428Z,1265.00
2019-06-25T04:12:20.925Z,1269.40
2019-06-25T04:12:56.278Z,1266.80
2019-06-25T04:13:31.566Z,1250.90
2019-06-25T04:14:06.927Z,1266.10
2019-06-25T04:14:42.211Z,1265.00
2019-06-25T04:15:17.391Z,1273.00
2019-06-25T04:15:52.674Z,1276.30
2019-06-25T04:16:28.106Z,1265.60
2019-06-25T04:17:03.588Z,1253.90
2019-06-25T04:17:39.038Z,1255.50
2019-06-25T04:18:14.816Z,1266.50
2019-06-25T04:18:50.260Z,1269.00
2019-06-25T04:19:25.545Z,1272.50
2019-06-25T04:20:00.839Z,1253.60
2019-06-25T04:20:36.021Z,1253.50
2019-06-25T04:21:11.393Z,1259.00
2019-06-25T04:21:47.028Z,1274.70
2019-06-25T04:22:22.425Z,1279.60
2019-06-25T04:22:57.954Z,1279.10
2019-06-25T04:23:33.529Z,1274.80
2019-06-25T04:24:08.930Z,1262.50
2019-06-25T04:24:44.396Z,1254.70
2019-06-25T04:25:19.784Z,1261.10
2019-06-25T04:25:55.468Z,1281.60
2019-06-25T04:26:30.773Z,1266.80
2019-06-25T04:27:06.343Z,1265.00
2019-06-25T04:27:41.917Z,1261.10
2019-06-25T04:28:17.380Z,1257.30
2019-06-25T04:28:53.280Z,1257.90
2019-06-25T04:29:28.830Z,1254.10
2019-06-25T04:30:04.598Z,1267.90
2019-06-25T04:30:40.040Z,1270.10
2019-06-25T04:31:15.372Z,1266.70
2019-06-25T04:31:50.643Z,1264.70
2019-06-25T04:32:33.363Z,1268.50
2019-06-25T04:33:01.667Z,1269.50
2019-06-25T04:33:36.822Z,1281.70
2019-06-25T04:34:12.193Z,1279.30
2019-06-25T04:34:47.443Z,1256.80
2019-06-25T04:35:22.833Z,1253.20
2019-06-25T04:35:59.308Z,1256.40
2019-06-25T04:36:33.920Z,1256.40
2019-06-25T04:37:09.269Z,1259.40
2019-06-25T04:37:44.547Z,1268.30
2019-06-25T04:38:19.983Z,1265.10
2019-06-25T04:38:55.479Z,1274.20
2019-06-25T04:39:31.014Z,1257.90
2019-06-25T04:40:06.346Z,1274.30
2019-06-25T04:40:41.479Z,1280.80
2019-06-25T04:41:16.829Z,1284.50
2019-06-25T04:41:52.078Z,1283.10
2019-06-25T04:42:27.301Z,1266.80
2019-06-25T04:43:02.710Z,1280.00
2019-06-25T04:43:38.144Z,1283.80
2019-06-25T04:44:13.318Z,1277.50
2019-06-25T04:44:49.009Z,1277.80
2019-06-25T04:45:24.553Z,1263.80
2019-06-25T04:46:00.042Z,1274.20
2019-06-25T04:46:35.571Z,1270.50
2019-06-25T04:47:10.893Z,1261.90
2019-06-25T04:47:46.331Z,1268.10
2019-06-25T04:48:21.800Z,1284.20
2019-06-25T04:48:57.379Z,1287.50
2019-06-25T04:49:32.619Z,1269.00
2019-06-25T04:50:07.895Z,1279.40
2019-06-25T04:50:43.354Z,1279.50
2019-06-25T04:51:18.722Z,1299.10
2019-06-25T04:51:54.078Z,1286.40
2019-06-25T04:52:29.508Z,1286.40
2019-06-25T04:53:04.858Z,1285.10
2019-06-25T04:53:40.143Z,1277.50
2019-06-25T04:54:15.402Z,1276.10
2019-06-25T04:54:50.672Z,1296.40
2019-06-25T04:55:25.857Z,1304.70
2019-06-25T04:56:01.395Z,1295.30
2019-06-25T04:56:37.073Z,1306.90
2019-06-25T04:57:12.404Z,1304.20
2019-06-25T04:57:47.734Z,1316.30
2019-06-25T04:58:23.408Z,1331.10
2019-06-25T04:58:58.878Z,1319.30
2019-06-25T04:59:34.214Z,1306.00
2019-06-25T05:00:09.394Z,1311.20
2019-06-25T05:00:44.582Z,1313.10
2019-06-25T05:01:19.931Z,1317.20
2019-06-25T05:01:55.304Z,1312.80
2019-06-25T05:02:30.553Z,1314.40
2019-06-25T05:03:06.165Z,1324.30
2019-06-25T05:03:41.743Z,1338.20
2019-06-25T05:04:16.981Z,1327.10
2019-06-25T05:04:52.514Z,1322.00
2019-06-25T05:05:27.831Z,1323.60
2019-06-25T05:06:03.302Z,1339.70
2019-06-25T05:06:38.773Z,1337.10
2019-06-25T05:07:14.232Z,1334.50
2019-06-25T05:07:49.814Z,1334.50
2019-06-25T05:08:25.101Z,1335.20
2019-06-25T05:09:00.395Z,1337.20
2019-06-25T05:09:35.873Z,1339.50
2019-06-25T05:10:11.411Z,1339.00
2019-06-25T05:10:46.792Z,1348.70
2019-06-25T05:11:22.431Z,1355.20
2019-06-25T05:11:57.715Z,1355.20
2019-06-25T05:12:33.356Z,1358.20
2019-06-25T05:13:08.626Z,1369.20
2019-06-25T05:13:44.206Z,1369.70
2019-06-25T05:14:19.869Z,1350.50
2019-06-25T05:14:55.212Z,1348.80
2019-06-25T05:15:30.690Z,1346.60
2019-06-25T05:16:06.153Z,1355.50
2019-06-25T05:16:41.814Z,1377.10
2019-06-25T05:17:17.221Z,1364.70
2019-06-25T05:17:52.879Z,1355.30
2019-06-25T05:18:28.261Z,1355.50
2019-06-25T05:19:03.749Z,1342.80
2019-06-25T05:19:39.125Z,1345.50
2019-06-25T05:20:14.659Z,1365.90
2019-06-25T05:20:49.827Z,1363.10
2019-06-25T05:21:25.183Z,1348.40
2019-06-25T05:22:00.670Z,1342.10
2019-06-25T05:22:35.911Z,1347.80
2019-06-25T05:23:11.392Z,1340.00
2019-06-25T05:23:46.756Z,1334.60
2019-06-25T05:24:22.037Z,1329.20
2019-06-25T05:24:57.709Z,1345.40
2019-06-25T05:25:33.150Z,1340.20
2019-06-25T05:26:08.847Z,1330.20
2019-06-25T05:26:44.182Z,1327.50
2019-06-25T05:27:19.457Z,1325.60
2019-06-25T05:27:54.714Z,1324.10
2019-06-25T05:28:30.300Z,1337.90
2019-06-25T05:29:05.921Z,1337.40
2019-06-25T05:29:41.631Z,1325.60
2019-06-25T05:30:17.014Z,1326.80
2019-06-25T05:30:52.464Z,1321.30
2019-06-25T05:31:27.849Z,1315.80
2019-06-25T05:32:03.303Z,1317.60
2019-06-25T05:32:38.595Z,1317.50
2019-06-25T05:33:14.058Z,1317.20
2019-06-25T05:33:49.503Z,1312.20
2019-06-25T05:34:25.004Z,1328.50
2019-06-25T05:35:00.317Z,1322.50
2019-06-25T05:35:36.250Z,1330.80
2019-06-25T05:36:11.727Z,1328.30
2019-06-25T05:36:47.199Z,1309.50
2019-06-25T05:37:22.536Z,1322.10
2019-06-25T05:37:58.164Z,1335.20
2019-06-25T05:38:33.349Z,1332.80
2019-06-25T05:39:08.834Z,1312.70
2019-06-25T05:39:44.182Z,1306.90
2019-06-25T05:40:19.601Z,1321.80
2019-06-25T05:40:55.094Z,1322.40
2019-06-25T05:41:30.334Z,1306.70
2019-06-25T05:42:05.826Z,1305.40
2019-06-25T05:42:41.286Z,1309.60
2019-06-25T05:43:16.718Z,1313.70
2019-06-25T05:43:52.264Z,1308.60
2019-06-25T05:44:27.641Z,1305.90
2019-06-25T05:45:03.094Z,1301.10
2019-06-25T05:45:38.605Z,1303.30
2019-06-25T05:46:13.887Z,1309.30
2019-06-25T05:46:49.243Z,1304.70
2019-06-25T05:47:24.518Z,1297.60
2019-06-25T05:47:59.867Z,1297.80
2019-06-25T05:48:35.170Z,1299.10
2019-06-25T05:49:10.692Z,1298.70
2019-06-25T05:49:46.249Z,1311.20
2019-06-25T05:50:22.119Z,1319.50
2019-06-25T05:50:57.334Z,1296.40
2019-06-25T05:51:32.808Z,1309.70
2019-06-25T05:52:08.066Z,1307.80
2019-06-25T05:52:43.660Z,1298.70
2019-06-25T05:53:18.907Z,1302.90
2019-06-25T05:53:54.688Z,1301.70
2019-06-25T05:54:30.331Z,1306.00
2019-06-25T05:55:05.753Z,1303.40
2019-06-25T05:55:41.310Z,1307.20
2019-06-25T05:56:17.283Z,1312.50
2019-06-25T05:56:52.876Z,1314.40
2019-06-25T05:57:28.643Z,1312.40
2019-06-25T05:58:04.034Z,1318.30
2019-06-25T05:58:39.774Z,1332.50
2019-06-25T05:59:15.154Z,1339.10
2019-06-25T05:59:50.532Z,1344.40
2019-06-25T06:00:25.725Z,1328.50
2019-06-25T06:01:01.346Z,1332.50
2019-06-25T06:01:36.706Z,1337.90
2019-06-25T06:02:12.193Z,1362.50
2019-06-25T06:02:47.853Z,1359.50
2019-06-25T06:03:23.228Z,1348.00
2019-06-25T06:03:58.569Z,1355.10
2019-06-25T06:04:33.953Z,1354.80
2019-06-25T06:05:09.702Z,1358.40
2019-06-25T06:05:44.904Z,1356.10
2019-06-25T06:06:20.214Z,1357.00
2019-06-25T06:06:55.494Z,1362.90
2019-06-25T06:07:30.954Z,1383.60
2019-06-25T06:08:06.106Z,1379.40
2019-06-25T06:08:41.405Z,1371.20
2019-06-25T06:09:17.037Z,1371.50
2019-06-25T06:09:52.414Z,1375.80
2019-06-25T06:10:27.754Z,1383.30
2019-06-25T06:11:03.346Z,1384.30
2019-06-25T06:11:38.666Z,1385.90
2019-06-25T06:12:14.026Z,1390.50
2019-06-25T06:12:49.313Z,1393.30
2019-06-25T06:13:24.652Z,1394.80
2019-06-25T06:14:00.393Z,1400.50
2019-06-25T06:14:35.860Z,1399.10
2019-06-25T06:15:11.301Z,1397.30
2019-06-25T06:15:46.644Z,1402.20
2019-06-25T06:16:21.928Z,1399.60
2019-06-25T06:16:57.229Z,1401.60
2019-06-25T06:17:32.498Z,1402.10
2019-06-25T06:18:08.200Z,1397.40
2019-06-25T06:18:43.570Z,1393.80
2019-06-25T06:19:18.833Z,1389.60
2019-06-25T06:19:54.376Z,1374.60
2019-06-25T06:20:29.858Z,1392.80
2019-06-25T06:21:05.246Z,1391.10
2019-06-25T06:21:40.708Z,1396.90
2019-06-25T06:22:16.284Z,1403.30
2019-06-25T06:22:52.042Z,1398.50
2019-06-25T06:23:27.678Z,1395.40
2019-06-25T06:24:03.159Z,1401.20
2019-06-25T06:24:38.704Z,1404.70
2019-06-25T06:25:14.059Z,1402.70
2019-06-25T06:25:49.339Z,1398.30
2019-06-25T06:26:24.890Z,1393.60
2019-06-25T06:27:00.504Z,1397.70
2019-06-25T06:27:35.688Z,1402.80
2019-06-25T06:28:11.214Z,1406.70
2019-06-25T06:28:46.559Z,1404.30
2019-06-25T06:29:21.945Z,1404.00
2019-06-25T06:29:57.183Z,1401.90
2019-06-25T06:30:35.680Z,1404.30
2019-06-25T06:31:16.881Z,1401.40
2019-06-25T06:31:43.626Z,1380.70
2019-06-25T06:32:19.207Z,1368.40
2019-06-25T06:32:54.657Z,1406.10
2019-06-25T06:33:36.492Z,1408.20
2019-06-25T06:34:05.384Z,1411.20
2019-06-25T06:34:40.598Z,1383.70
2019-06-25T06:35:16.188Z,1360.50
2019-06-25T06:35:51.446Z,1368.90
2019-06-25T06:36:26.925Z,1368.50
2019-06-25T06:37:02.174Z,1377.60
2019-06-25T06:37:37.473Z,1371.90
2019-06-25T06:38:12.965Z,1389.00
2019-06-25T06:38:48.564Z,1378.00
2019-06-25T06:39:23.622Z,1351.90
2019-06-25T06:39:59.105Z,1382.60
2019-06-25T06:40:34.355Z,1377.70
2019-06-25T06:41:09.742Z,1390.30
2019-06-25T06:41:45.189Z,1411.90
2019-06-25T06:42:20.599Z,1405.80
2019-06-25T06:42:55.974Z,1405.20
2019-06-25T06:43:31.457Z,1401.00
2019-06-25T06:44:07.139Z,1397.80
2019-06-25T06:44:42.389Z,1385.90
2019-06-25T06:45:17.666Z,1379.90
2019-06-25T06:45:53.019Z,1388.60
2019-06-25T06:46:28.505Z,1396.90
2019-06-25T06:47:03.949Z,1402.10
2019-06-25T06:47:39.346Z,1398.40
2019-06-25T06:48:14.989Z,1355.80
2019-06-25T06:48:50.318Z,1349.70
2019-06-25T06:49:25.799Z,1353.00
2019-06-25T06:50:01.186Z,1362.90
2019-06-25T06:50:36.373Z,1354.40
2019-06-25T06:51:11.746Z,1354.80
2019-06-25T06:51:47.051Z,1370.50
2019-06-25T06:52:22.199Z,1359.40
2019-06-25T06:52:58.018Z,1345.60
2019-06-25T06:53:32.955Z,1364.10
2019-06-25T06:54:08.722Z,1386.20
2019-06-25T06:54:44.294Z,1383.00
2019-06-25T06:55:19.848Z,1383.30
2019-06-25T06:55:55.166Z,1403.90
2019-06-25T06:56:30.513Z,1402.50
2019-06-25T06:57:05.685Z,1399.50
2019-06-25T06:57:41.431Z,1390.90
2019-06-25T06:58:16.702Z,1384.20
2019-06-25T06:58:52.059Z,1401.30
2019-06-25T06:59:27.602Z,1387.70
2019-06-25T07:00:03.062Z,1404.10
2019-06-25T07:00:38.456Z,1404.50
2019-06-25T07:01:13.809Z,1395.10
2019-06-25T07:01:49.295Z,1385.70
2019-06-25T07:02:24.765Z,1409.00
2019-06-25T07:03:01.906Z,1408.50
2019-06-25T07:03:51.663Z,1395.30
2019-06-25T07:04:11.066Z,1383.70
2019-06-25T07:04:46.573Z,1399.80
2019-06-25T07:05:21.838Z,1405.60
2019-06-25T07:05:57.429Z,1403.90
2019-06-25T07:06:33.016Z,1404.80
2019-06-25T07:07:08.226Z,1403.20
2019-06-25T07:07:43.621Z,1403.20
2019-06-25T07:08:19.194Z,1400.50